Sea Diamond Fisheries — WDI8881 — position and weather

sailwx.info

Track history (hours):
 
Tides and Currents Weather Stations Pressure Air Temp Water Temp Dewpoint Dewpoint Depression Visibility Wind Speed Wind Dir Waves Ship Positions

Sea Diamond Fisheries

Owner: Sea Diamond Fisheries, Sitka, AK. More information available from US FCC via Universal Licensing System and Coast Guard Vessel Documentation Center.

Last reported at 2018-May-17 19:36 UTC. Time now 2018-May-25 18:36 UTC.
Position N 36°40' W 121°52'.

Length 24 m.

Type: Fishing. MMSI: 367743080.

Date/timePositionNaut miles runAvg speedWind from/ knotsBaromVisibWave heightAir tempDewpointWater temp
2018-May-17 19:36N 36°40' W 121°52'1 8.4
2018-May-17 19:30N 36°39' W 121°52'3 5.0
2018-May-17 18:59N 36°38' W 121°55'0 0.0
2018-May-17 18:29N 36°38' W 121°55'0 0.0
2018-May-17 16:53N 36°38' W 121°55'0 1.1
2018-May-17 16:30N 36°38' W 121°55'2 2.4
2018-May-17 15:51N 36°39' W 121°56'0 0.1
2018-May-17 13:09N 36°39' W 121°56'1 2.3
2018-May-17 12:51N 36°39' W 121°55'1 1.2
2018-May-17 12:21N 36°38' W 121°55'2 6.1
2018-May-17 12:00N 36°36' W 121°53'0 0.0
2018-May-17 11:30N 36°36' W 121°53'0 0.0
2018-May-17 11:00N 36°36' W 121°53'0 0.0
2018-May-17 10:30N 36°36' W 121°53'0 0.0
2018-May-17 10:00N 36°36' W 121°53'0 0.0
2018-May-17 09:30N 36°36' W 121°53'0 0.0
2018-May-17 08:59N 36°36' W 121°53'0 0.0
2018-May-17 08:30N 36°36' W 121°53'0 0.0
2018-May-17 08:00N 36°36' W 121°53'0 0.0
2018-May-17 07:30N 36°36' W 121°53'0 0.0
2018-May-17 07:00N 36°36' W 121°53'0 0.0
2018-May-17 06:30N 36°36' W 121°53'0 0.0
2018-May-17 06:00N 36°36' W 121°53'0 0.0
2018-May-17 05:30N 36°36' W 121°53'0 0.0
2018-May-17 05:00N 36°36' W 121°53'0 0.4
2018-May-17 04:30N 36°36' W 121°53'0 0.5
2018-May-17 03:59N 36°36' W 121°53'1 1.8
2018-May-17 03:30N 36°37' W 121°54'1 2.2
2018-May-17 02:58N 36°38' W 121°55'0 0.1
2018-May-17 02:30N 36°38' W 121°55'1 1.9
2018-May-17 02:00N 36°38' W 121°54'0 0.7
2018-May-17 01:30N 36°38' W 121°54'0 0.3
2018-May-17 01:00N 36°38' W 121°54'0 0.1
2018-May-17 00:30N 36°38' W 121°54'0 0.6
2018-May-17 00:00N 36°38' W 121°54'0 0.6
2018-May-16 23:30N 36°38' W 121°54'0 0.2
2018-May-16 23:00N 36°38' W 121°54'2 2.6
2018-May-16 22:05N 36°38' W 121°51'0 0.0
2018-May-16 21:50N 36°38' W 121°51'0 0.0
2018-May-16 21:29N 36°38' W 121°51'0 0.0
2018-May-16 20:58N 36°38' W 121°51'0 0.0
2018-May-16 20:26N 36°38' W 121°51'0 0.0
2018-May-16 20:00N 36°38' W 121°51'0 0.7
2018-May-16 19:30N 36°39' W 121°51'1 2.0
2018-May-16 19:00N 36°38' W 121°52'2 4.1
2018-May-16 18:30N 36°36' W 121°53'0 0.0
2018-May-16 18:00N 36°36' W 121°53'0 0.0
2018-May-16 17:30N 36°36' W 121°53'0 0.0
2018-May-16 17:00N 36°36' W 121°53'0 0.0
2018-May-16 16:30N 36°36' W 121°53'0 0.6
2018-May-16 16:00N 36°36' W 121°53'0 0.0
2018-May-16 15:30N 36°36' W 121°53'0 0.0
2018-May-16 15:00N 36°36' W 121°53'0 0.0
2018-May-16 14:30N 36°36' W 121°53'0 0.0
2018-May-16 14:00N 36°36' W 121°53'0 0.0
2018-May-16 13:30N 36°37' W 121°53'2 3.3
2018-May-16 13:00N 36°38' W 121°54'1 2.3
2018-May-16 12:30N 36°38' W 121°53'1 2.8
2018-May-16 12:00N 36°36' W 121°53'0 0.0
2018-May-16 11:30N 36°36' W 121°53'0 0.0
2018-May-16 11:00N 36°36' W 121°53'0 0.0
2018-May-16 10:30N 36°36' W 121°53'0 0.0
2018-May-16 09:58N 36°36' W 121°53'0 0.0
2018-May-16 09:30N 36°36' W 121°53'0 0.0
2018-May-16 09:00N 36°36' W 121°53'0 0.0
2018-May-16 08:30N 36°36' W 121°53'0 0.0
2018-May-16 07:59N 36°36' W 121°53'0 0.0
2018-May-16 07:30N 36°36' W 121°53'0 0.0
2018-May-16 07:00N 36°36' W 121°53'0 0.0
2018-May-16 06:30N 36°36' W 121°53'0 0.0
2018-May-16 06:00N 36°36' W 121°53'0 0.0
2018-May-16 05:29N 36°36' W 121°53'0 0.1
2018-May-16 05:00N 36°36' W 121°53'0 0.0
2018-May-16 04:30N 36°36' W 121°53'0 0.0
2018-May-16 03:58N 36°36' W 121°53'0 0.0
2018-May-16 03:30N 36°36' W 121°53'0 0.0
2018-May-16 03:00N 36°36' W 121°53'0 0.1
2018-May-16 02:30N 36°36' W 121°53'0 0.0
2018-May-16 02:00N 36°36' W 121°53'0 0.1
2018-May-16 01:30N 36°36' W 121°53'0 0.3
2018-May-16 01:00N 36°36' W 121°53'0 0.0
2018-May-16 00:30N 36°36' W 121°53'0 0.3
2018-May-16 00:00N 36°36' W 121°53'0 0.0
2018-May-15 23:30N 36°36' W 121°53'1 2.4
2018-May-15 23:00N 36°37' W 121°54'2 3.1
2018-May-15 22:30N 36°39' W 121°55'3 2.1
2018-May-15 21:08N 36°37' W 121°58'3 0.2
2018-May-15 03:43N 36°38' W 121°55'0 1.5
2018-May-15 03:27N 36°38' W 121°54'0 0.3
2018-May-15 02:58N 36°38' W 121°54'0 0.1
2018-May-15 02:27N 36°38' W 121°55'2 4.1
2018-May-15 02:00N 36°37' W 121°53'0 0.5
2018-May-15 01:30N 36°36' W 121°53'0 0.0
2018-May-15 01:00N 36°36' W 121°53'0 0.2
2018-May-15 00:30N 36°36' W 121°53'0 0.0
2018-May-15 00:00N 36°36' W 121°53'2 3.4
2018-May-14 23:30N 36°38' W 121°54'2 3.1
2018-May-14 23:00N 36°38' W 121°52'2 3.3
2018-May-14 22:30N 36°38' W 121°54'0 0.3
2018-May-14 21:53N 36°38' W 121°55'1 1.4
2018-May-14 21:29N 36°38' W 121°54'0 0.4
2018-May-14 20:59N 36°38' W 121°54'0 0.1
2018-May-14 20:30N 36°38' W 121°54'0 0.8
2018-May-14 19:59N 36°38' W 121°55'0 1.0
2018-May-14 19:30N 36°38' W 121°54'0 0.4
2018-May-14 18:57N 36°38' W 121°54'0 0.1
2018-May-14 18:30N 36°38' W 121°54'0 0.1
2018-May-14 18:00N 36°38' W 121°54'0 0.9
2018-May-14 17:30N 36°38' W 121°55'0 0.5
2018-May-14 16:58N 36°38' W 121°55'1 0.6
2018-May-14 16:10N 36°39' W 121°55'0 0.5
2018-May-14 15:54N 36°39' W 121°55'0 0.6
2018-May-14 15:29N 36°39' W 121°55'0 0.8
2018-May-14 15:00N 36°39' W 121°55'0 0.4
2018-May-14 14:27N 36°39' W 121°55'1 1.8
2018-May-14 14:00N 36°38' W 121°54'0 0.1
2018-May-14 13:30N 36°38' W 121°54'3 5.0
2018-May-14 13:00N 36°39' W 121°52'0 0.6
2018-May-14 12:28N 36°39' W 121°51'2 4.3
2018-May-14 12:00N 36°38' W 121°53'1 2.5
2018-May-14 11:30N 36°36' W 121°53'0 0.1
2018-May-14 11:00N 36°36' W 121°53'0 0.0
2018-May-14 10:30N 36°36' W 121°53'0 0.1
2018-May-14 10:00N 36°36' W 121°53'0 0.0
2018-May-14 09:30N 36°36' W 121°53'0 0.0
2018-May-14 09:00N 36°36' W 121°53'0 0.1
2018-May-14 08:30N 36°36' W 121°53'0 0.0
2018-May-14 08:00N 36°36' W 121°53'0 0.0
2018-May-14 07:30N 36°36' W 121°53'0 0.0
2018-May-14 07:00N 36°36' W 121°53'0 0.0
2018-May-14 06:30N 36°36' W 121°53'0 0.0
2018-May-14 06:00N 36°36' W 121°53'0 0.1
2018-May-14 05:30N 36°36' W 121°53'  
2018-May-10 20:43N 36°39' W 121°52'2 8.2
2018-May-10 20:30N 36°37' W 121°53'1 2.5
2018-May-10 20:00N 36°36' W 121°53'0 0.0
2018-May-10 19:30N 36°36' W 121°53'0 0.1
2018-May-10 19:00N 36°36' W 121°53'0 0.0
2018-May-10 18:30N 36°36' W 121°53'0 0.0
2018-May-10 18:00N 36°36' W 121°53'0 0.0
2018-May-10 17:30N 36°36' W 121°53'0 0.0
2018-May-10 17:00N 36°36' W 121°53'0 0.1
2018-May-10 16:30N 36°36' W 121°53'3 6.4
2018-May-10 16:00N 36°39' W 121°51'0 0.8
2018-May-10 15:28N 36°39' W 121°51'0 0.2
2018-May-10 15:00N 36°39' W 121°51'0 0.0
2018-May-10 14:30N 36°39' W 121°51'0 0.2
2018-May-10 14:00N 36°39' W 121°51'0 0.8
2018-May-10 13:30N 36°39' W 121°52'0 0.2
2018-May-10 13:00N 36°39' W 121°52'0 0.5
2018-May-10 12:19N 36°39' W 121°51'2 5.7
2018-May-10 12:00N 36°37' W 121°53'1 1.9
2018-May-10 11:29N 36°36' W 121°53'0 0.0
2018-May-10 10:59N 36°36' W 121°53'0 0.0
2018-May-10 10:30N 36°36' W 121°53'0 0.0
2018-May-10 10:00N 36°36' W 121°53'0 0.0
2018-May-10 09:27N 36°36' W 121°53'0 0.0
2018-May-10 09:00N 36°36' W 121°53'0 0.0
2018-May-10 08:30N 36°36' W 121°53'0 0.0
2018-May-10 08:00N 36°36' W 121°53'0 0.0
2018-May-10 07:30N 36°36' W 121°53'0 0.0
2018-May-10 06:59N 36°36' W 121°53'0 0.0
2018-May-10 06:30N 36°36' W 121°53'0 0.0
2018-May-10 06:00N 36°36' W 121°53'0 0.0
2018-May-10 05:30N 36°36' W 121°53'0 0.0
2018-May-10 05:00N 36°36' W 121°53'0 0.0
2018-May-10 04:30N 36°36' W 121°53'0 0.0
2018-May-10 04:00N 36°36' W 121°53'0 0.0
2018-May-10 03:30N 36°36' W 121°53'0 0.0
2018-May-10 03:00N 36°36' W 121°53'0 0.0
2018-May-10 02:30N 36°36' W 121°53'0 0.0
2018-May-10 02:00N 36°36' W 121°53'0 0.0
2018-May-10 01:30N 36°36' W 121°53'0 0.0
2018-May-10 01:00N 36°36' W 121°53'0 0.0
2018-May-10 00:30N 36°36' W 121°53'0 0.0
2018-May-10 00:00N 36°36' W 121°53'0 0.2
2018-May-09 23:30N 36°36' W 121°53'0 0.0
2018-May-09 23:00N 36°36' W 121°53'0 0.3
2018-May-09 22:30N 36°36' W 121°53'0 0.0
2018-May-09 22:00N 36°36' W 121°53'0 0.0
2018-May-09 21:30N 36°36' W 121°53'3 6.4
2018-May-09 20:58N 36°39' W 121°51'0 0.6
2018-May-09 20:19N 36°39' W 121°51'0 0.8
2018-May-09 19:55N 36°39' W 121°51'0 0.4
2018-May-09 19:25N 36°39' W 121°51'0 0.7
2018-May-09 19:00N 36°39' W 121°51'0 0.4
2018-May-09 18:20N 36°39' W 121°51'0 0.3
2018-May-09 18:01N 36°39' W 121°51'0 0.2
2018-May-09 17:30N 36°39' W 121°51'0 0.5
2018-May-09 17:00N 36°39' W 121°52'1 1.8
2018-May-09 16:28N 36°39' W 121°51'0 0.6
2018-May-09 16:00N 36°39' W 121°51'0 0.2
2018-May-09 15:17N 36°39' W 121°51'0 1.3
2018-May-09 14:56N 36°39' W 121°51'2 5.3
2018-May-09 14:30N 36°38' W 121°54'  
Track history (hours):
 
Tides and Currents Weather Stations Pressure Air Temp Water Temp Dewpoint Dewpoint Depression Visibility Wind Speed Wind Dir Waves Ship Positions

Sea Diamond Fisheries

Owner: Sea Diamond Fisheries, Sitka, AK. More information available from US FCC via Universal Licensing System and Coast Guard Vessel Documentation Center.

Last reported at 2018-May-17 19:36 UTC. Time now 2018-May-25 18:36 UTC.
Position N 36°40' W 121°52'.

Length 24 m.

Type: Fishing. MMSI: 367743080.

Date/timePositionNaut miles runAvg speedWind from/ knotsBaromVisibWave heightAir tempDewpointWater temp
2018-May-17 19:36N 36°40' W 121°52'1 8.4
2018-May-17 19:30N 36°39' W 121°52'3 5.0
2018-May-17 18:59N 36°38' W 121°55'0 0.0
2018-May-17 18:29N 36°38' W 121°55'0 0.0
2018-May-17 16:53N 36°38' W 121°55'0 1.1
2018-May-17 16:30N 36°38' W 121°55'2 2.4
2018-May-17 15:51N 36°39' W 121°56'0 0.1
2018-May-17 13:09N 36°39' W 121°56'1 2.3
2018-May-17 12:51N 36°39' W 121°55'1 1.2
2018-May-17 12:21N 36°38' W 121°55'2 6.1
2018-May-17 12:00N 36°36' W 121°53'0 0.0
2018-May-17 11:30N 36°36' W 121°53'0 0.0
2018-May-17 11:00N 36°36' W 121°53'0 0.0
2018-May-17 10:30N 36°36' W 121°53'0 0.0
2018-May-17 10:00N 36°36' W 121°53'0 0.0
2018-May-17 09:30N 36°36' W 121°53'0 0.0
2018-May-17 08:59N 36°36' W 121°53'0 0.0
2018-May-17 08:30N 36°36' W 121°53'0 0.0
2018-May-17 08:00N 36°36' W 121°53'0 0.0
2018-May-17 07:30N 36°36' W 121°53'0 0.0
2018-May-17 07:00N 36°36' W 121°53'0 0.0
2018-May-17 06:30N 36°36' W 121°53'0 0.0
2018-May-17 06:00N 36°36' W 121°53'0 0.0
2018-May-17 05:30N 36°36' W 121°53'0 0.0
2018-May-17 05:00N 36°36' W 121°53'0 0.4
2018-May-17 04:30N 36°36' W 121°53'0 0.5
2018-May-17 03:59N 36°36' W 121°53'1 1.8
2018-May-17 03:30N 36°37' W 121°54'1 2.2
2018-May-17 02:58N 36°38' W 121°55'0 0.1
2018-May-17 02:30N 36°38' W 121°55'1 1.9
2018-May-17 02:00N 36°38' W 121°54'0 0.7
2018-May-17 01:30N 36°38' W 121°54'0 0.3
2018-May-17 01:00N 36°38' W 121°54'0 0.1
2018-May-17 00:30N 36°38' W 121°54'0 0.6
2018-May-17 00:00N 36°38' W 121°54'0 0.6
2018-May-16 23:30N 36°38' W 121°54'0 0.2
2018-May-16 23:00N 36°38' W 121°54'2 2.6
2018-May-16 22:05N 36°38' W 121°51'0 0.0
2018-May-16 21:50N 36°38' W 121°51'0 0.0
2018-May-16 21:29N 36°38' W 121°51'0 0.0
2018-May-16 20:58N 36°38' W 121°51'0 0.0
2018-May-16 20:26N 36°38' W 121°51'0 0.0
2018-May-16 20:00N 36°38' W 121°51'0 0.7
2018-May-16 19:30N 36°39' W 121°51'1 2.0
2018-May-16 19:00N 36°38' W 121°52'2 4.1
2018-May-16 18:30N 36°36' W 121°53'0 0.0
2018-May-16 18:00N 36°36' W 121°53'0 0.0
2018-May-16 17:30N 36°36' W 121°53'0 0.0
2018-May-16 17:00N 36°36' W 121°53'0 0.0
2018-May-16 16:30N 36°36' W 121°53'0 0.6
2018-May-16 16:00N 36°36' W 121°53'0 0.0
2018-May-16 15:30N 36°36' W 121°53'0 0.0
2018-May-16 15:00N 36°36' W 121°53'0 0.0
2018-May-16 14:30N 36°36' W 121°53'0 0.0
2018-May-16 14:00N 36°36' W 121°53'0 0.0
2018-May-16 13:30N 36°37' W 121°53'2 3.3
2018-May-16 13:00N 36°38' W 121°54'1 2.3
2018-May-16 12:30N 36°38' W 121°53'1 2.8
2018-May-16 12:00N 36°36' W 121°53'0 0.0
2018-May-16 11:30N 36°36' W 121°53'0 0.0
2018-May-16 11:00N 36°36' W 121°53'0 0.0
2018-May-16 10:30N 36°36' W 121°53'0 0.0
2018-May-16 09:58N 36°36' W 121°53'0 0.0
2018-May-16 09:30N 36°36' W 121°53'0 0.0
2018-May-16 09:00N 36°36' W 121°53'0 0.0
2018-May-16 08:30N 36°36' W 121°53'0 0.0
2018-May-16 07:59N 36°36' W 121°53'0 0.0
2018-May-16 07:30N 36°36' W 121°53'0 0.0
2018-May-16 07:00N 36°36' W 121°53'0 0.0
2018-May-16 06:30N 36°36' W 121°53'0 0.0
2018-May-16 06:00N 36°36' W 121°53'0 0.0
2018-May-16 05:29N 36°36' W 121°53'0 0.1
2018-May-16 05:00N 36°36' W 121°53'0 0.0
2018-May-16 04:30N 36°36' W 121°53'0 0.0
2018-May-16 03:58N 36°36' W 121°53'0 0.0
2018-May-16 03:30N 36°36' W 121°53'0 0.0
2018-May-16 03:00N 36°36' W 121°53'0 0.1
2018-May-16 02:30N 36°36' W 121°53'0 0.0
2018-May-16 02:00N 36°36' W 121°53'0 0.1
2018-May-16 01:30N 36°36' W 121°53'0 0.3
2018-May-16 01:00N 36°36' W 121°53'0 0.0
2018-May-16 00:30N 36°36' W 121°53'0 0.3
2018-May-16 00:00N 36°36' W 121°53'0 0.0
2018-May-15 23:30N 36°36' W 121°53'1 2.4
2018-May-15 23:00N 36°37' W 121°54'2 3.1
2018-May-15 22:30N 36°39' W 121°55'3 2.1
2018-May-15 21:08N 36°37' W 121°58'3 0.2
2018-May-15 03:43N 36°38' W 121°55'0 1.5
2018-May-15 03:27N 36°38' W 121°54'0 0.3
2018-May-15 02:58N 36°38' W 121°54'0 0.1
2018-May-15 02:27N 36°38' W 121°55'2 4.1
2018-May-15 02:00N 36°37' W 121°53'0 0.5
2018-May-15 01:30N 36°36' W 121°53'0 0.0
2018-May-15 01:00N 36°36' W 121°53'0 0.2
2018-May-15 00:30N 36°36' W 121°53'0 0.0
2018-May-15 00:00N 36°36' W 121°53'2 3.4
2018-May-14 23:30N 36°38' W 121°54'2 3.1
2018-May-14 23:00N 36°38' W 121°52'2 3.3
2018-May-14 22:30N 36°38' W 121°54'0 0.3
2018-May-14 21:53N 36°38' W 121°55'1 1.4
2018-May-14 21:29N 36°38' W 121°54'0 0.4
2018-May-14 20:59N 36°38' W 121°54'0 0.1
2018-May-14 20:30N 36°38' W 121°54'0 0.8
2018-May-14 19:59N 36°38' W 121°55'0 1.0
2018-May-14 19:30N 36°38' W 121°54'0 0.4
2018-May-14 18:57N 36°38' W 121°54'0 0.1
2018-May-14 18:30N 36°38' W 121°54'0 0.1
2018-May-14 18:00N 36°38' W 121°54'0 0.9
2018-May-14 17:30N 36°38' W 121°55'0 0.5
2018-May-14 16:58N 36°38' W 121°55'1 0.6
2018-May-14 16:10N 36°39' W 121°55'0 0.5
2018-May-14 15:54N 36°39' W 121°55'0 0.6
2018-May-14 15:29N 36°39' W 121°55'0 0.8
2018-May-14 15:00N 36°39' W 121°55'0 0.4
2018-May-14 14:27N 36°39' W 121°55'1 1.8
2018-May-14 14:00N 36°38' W 121°54'0 0.1
2018-May-14 13:30N 36°38' W 121°54'3 5.0
2018-May-14 13:00N 36°39' W 121°52'0 0.6
2018-May-14 12:28N 36°39' W 121°51'2 4.3
2018-May-14 12:00N 36°38' W 121°53'1 2.5
2018-May-14 11:30N 36°36' W 121°53'0 0.1
2018-May-14 11:00N 36°36' W 121°53'0 0.0
2018-May-14 10:30N 36°36' W 121°53'0 0.1
2018-May-14 10:00N 36°36' W 121°53'0 0.0
2018-May-14 09:30N 36°36' W 121°53'0 0.0
2018-May-14 09:00N 36°36' W 121°53'0 0.1
2018-May-14 08:30N 36°36' W 121°53'0 0.0
2018-May-14 08:00N 36°36' W 121°53'0 0.0
2018-May-14 07:30N 36°36' W 121°53'0 0.0
2018-May-14 07:00N 36°36' W 121°53'0 0.0
2018-May-14 06:30N 36°36' W 121°53'0 0.0
2018-May-14 06:00N 36°36' W 121°53'0 0.1
2018-May-14 05:30N 36°36' W 121°53'  
2018-May-10 20:43N 36°39' W 121°52'2 8.2
2018-May-10 20:30N 36°37' W 121°53'1 2.5
2018-May-10 20:00N 36°36' W 121°53'0 0.0
2018-May-10 19:30N 36°36' W 121°53'0 0.1
2018-May-10 19:00N 36°36' W 121°53'0 0.0
2018-May-10 18:30N 36°36' W 121°53'0 0.0
2018-May-10 18:00N 36°36' W 121°53'0 0.0
2018-May-10 17:30N 36°36' W 121°53'0 0.0
2018-May-10 17:00N 36°36' W 121°53'0 0.1
2018-May-10 16:30N 36°36' W 121°53'3 6.4
2018-May-10 16:00N 36°39' W 121°51'0 0.8
2018-May-10 15:28N 36°39' W 121°51'0 0.2
2018-May-10 15:00N 36°39' W 121°51'0 0.0
2018-May-10 14:30N 36°39' W 121°51'0 0.2
2018-May-10 14:00N 36°39' W 121°51'0 0.8
2018-May-10 13:30N 36°39' W 121°52'0 0.2
2018-May-10 13:00N 36°39' W 121°52'0 0.5
2018-May-10 12:19N 36°39' W 121°51'2 5.7
2018-May-10 12:00N 36°37' W 121°53'1 1.9
2018-May-10 11:29N 36°36' W 121°53'0 0.0
2018-May-10 10:59N 36°36' W 121°53'0 0.0
2018-May-10 10:30N 36°36' W 121°53'0 0.0
2018-May-10 10:00N 36°36' W 121°53'0 0.0
2018-May-10 09:27N 36°36' W 121°53'0 0.0
2018-May-10 09:00N 36°36' W 121°53'0 0.0
2018-May-10 08:30N 36°36' W 121°53'0 0.0
2018-May-10 08:00N 36°36' W 121°53'0 0.0
2018-May-10 07:30N 36°36' W 121°53'0 0.0
2018-May-10 06:59N 36°36' W 121°53'0 0.0
2018-May-10 06:30N 36°36' W 121°53'0 0.0
2018-May-10 06:00N 36°36' W 121°53'0 0.0
2018-May-10 05:30N 36°36' W 121°53'0 0.0
2018-May-10 05:00N 36°36' W 121°53'0 0.0
2018-May-10 04:30N 36°36' W 121°53'0 0.0
2018-May-10 04:00N 36°36' W 121°53'0 0.0
2018-May-10 03:30N 36°36' W 121°53'0 0.0
2018-May-10 03:00N 36°36' W 121°53'0 0.0
2018-May-10 02:30N 36°36' W 121°53'0 0.0
2018-May-10 02:00N 36°36' W 121°53'0 0.0
2018-May-10 01:30N 36°36' W 121°53'0 0.0
2018-May-10 01:00N 36°36' W 121°53'0 0.0
2018-May-10 00:30N 36°36' W 121°53'0 0.0
2018-May-10 00:00N 36°36' W 121°53'0 0.2
2018-May-09 23:30N 36°36' W 121°53'0 0.0
2018-May-09 23:00N 36°36' W 121°53'0 0.3
2018-May-09 22:30N 36°36' W 121°53'0 0.0
2018-May-09 22:00N 36°36' W 121°53'0 0.0
2018-May-09 21:30N 36°36' W 121°53'3 6.4
2018-May-09 20:58N 36°39' W 121°51'0 0.6
2018-May-09 20:19N 36°39' W 121°51'0 0.8
2018-May-09 19:55N 36°39' W 121°51'0 0.4
2018-May-09 19:25N 36°39' W 121°51'0 0.7
2018-May-09 19:00N 36°39' W 121°51'0 0.4
2018-May-09 18:20N 36°39' W 121°51'0 0.3
2018-May-09 18:01N 36°39' W 121°51'0 0.2
2018-May-09 17:30N 36°39' W 121°51'0 0.5
2018-May-09 17:00N 36°39' W 121°52'1 1.8
2018-May-09 16:28N 36°39' W 121°51'0 0.6
2018-May-09 16:00N 36°39' W 121°51'0 0.2
2018-May-09 15:17N 36°39' W 121°51'0 1.3
2018-May-09 14:56N 36°39' W 121°51'2 5.3
2018-May-09 14:30N 36°38' W 121°54'  

Dump ship's entire track history